^^
Station Historical Data
Daily Summary for March 6, 2017 Units:  Metric    English   Both
« Previous Day
Next Day »
Daily Weekly Monthly Yearly Custom
  High: Low: Average:
Temperature: 37.2 °C 18.8 °C 28.4 °C
Dew Point: 9.7 °C 5.2 °C 6.8 °C
Humidity: 46% 15% 28%
Wind Speed: 20.9km/h 0km/h 4km/h
Wind Gust: 24.1km/h - -
Wind- - SSE
Pressure: 1010.4 hPa 1005.3 hPa -
Precipitation: 0 mm    
Historical Graphs
 
 
Tabular Data for March 6, 2017
Time Temperature Dew Point Pressure Wind Wind Speed Wind Gust Humidity Rainfall Rate (Hourly) solar Conditions
00:13 24.9 °C 5.6 °C 1010.4 hPa SSW 6.4 km/h 11.3 km/h 29% 0 mm 0.0 W/m2
00:18 24.8 °C 5.6 °C 1010.4 hPa SSW 6.4 km/h 12.9 km/h 29% 0 mm 0.0 W/m2
00:28 24.4 °C 5.7 °C 1010.4 hPa SSW 7.9 km/h 8 km/h 30% 0 mm 0.0 W/m2
00:33 24.2 °C 5.5 °C 1010.4 hPa SSW 4.7 km/h 8 km/h 30% 0 mm 0.0 W/m2
00:39 23.9 °C 5.7 °C 1010.4 hPa SSW 7.9 km/h 9.7 km/h 31% 0 mm 0.0 W/m2
00:44 23.7 °C 5.6 °C 1010.4 hPa SSW 6.4 km/h 9.7 km/h 31% 0 mm 0.0 W/m2
00:54 23.6 °C 5.5 °C 1010.4 hPa SSW 6.4 km/h 9.7 km/h 31% 0 mm 0.0 W/m2
00:59 23.4 °C 5.3 °C 1010.4 hPa Calm   4.8 km/h 31% 0 mm 0.0 W/m2
01:04 23.2 °C 5.6 °C 1010.4 hPa Calm     32% 0 mm 0.0 W/m2
01:09 23.1 °C 5.5 °C 1010.4 hPa Calm     32% 0 mm 0.0 W/m2
01:19 22.8 °C 5.7 °C 1010 hPa Calm     33% 0 mm 0.0 W/m2
01:24 22.9 °C 5.8 °C 1010 hPa Calm     33% 0 mm 0.0 W/m2
01:30 22.9 °C 5.3 °C 1010 hPa Calm     32% 0 mm 0.0 W/m2
01:40 22.7 °C 5.6 °C 1010 hPa Calm     33% 0 mm 0.0 W/m2
01:45 22.1 °C 5.5 °C 1010 hPa Calm     34% 0 mm 0.0 W/m2
01:50 22 °C 5.4 °C 1010 hPa Calm     34% 0 mm 0.0 W/m2
01:56 21.9 °C 5.3 °C 1010 hPa Calm     34% 0 mm 0.0 W/m2
02:01 21.8 °C 5.2 °C 1010 hPa Calm     34% 0 mm 0.0 W/m2
02:06 21.7 °C 5.6 °C 1010 hPa Calm     35% 0 mm 0.0 W/m2
02:12 21.6 °C 5.9 °C 1010 hPa Calm     36% 0 mm 0.0 W/m2
02:17 21.5 °C 5.8 °C 1010 hPa Calm     36% 0 mm 0.0 W/m2
02:22 21.5 °C 5.8 °C 1010 hPa Calm     36% 0 mm 0.0 W/m2
02:28 21.4 °C 5.7 °C 1010 hPa Calm     36% 0 mm 0.0 W/m2
02:33 21.3 °C 6 °C 1010 hPa Calm     37% 0 mm 0.0 W/m2
02:38 21.2 °C 5.9 °C 1010 hPa Calm     37% 0 mm 0.0 W/m2
02:44 21.2 °C 5.9 °C 1010 hPa Calm     37% 0 mm 0.0 W/m2
02:49 21.1 °C 6.2 °C 1010 hPa Calm     38% 0 mm 0.0 W/m2
02:54 21 °C 6.1 °C 1010 hPa Calm     38% 0 mm 0.0 W/m2
02:59 20.9 °C 6 °C 1010 hPa Calm     38% 0 mm 0.0 W/m2
03:09 21 °C 6.5 °C 1009.7 hPa Calm     39% 0 mm 0.0 W/m2
03:14 21 °C 6.1 °C 1009.7 hPa Calm     38% 0 mm 0.0 W/m2
03:19 20.9 °C 6 °C 1009.7 hPa Calm     38% 0 mm 0.0 W/m2
03:25 20.9 °C 6 °C 1009.7 hPa Calm     38% 0 mm 0.0 W/m2
03:30 20.7 °C 6.2 °C 1009.7 hPa Calm     39% 0 mm 0.0 W/m2
03:35 20.6 °C 6.2 °C 1009.7 hPa Calm     39% 0 mm 0.0 W/m2
03:46 20.3 °C 6.3 °C 1009.7 hPa Calm     40% 0 mm 0.0 W/m2
03:51 20.2 °C 6.5 °C 1009.7 hPa Calm     41% 0 mm 0.0 W/m2
03:56 20.3 °C 6.6 °C 1009.7 hPa Calm     41% 0 mm 0.0 W/m2
04:01 20.4 °C 6.3 °C 1009.7 hPa Calm     40% 0 mm 0.0 W/m2
04:07 20.5 °C 6.4 °C 1009.7 hPa Calm     40% 0 mm 0.0 W/m2
04:17 20.6 °C 6.5 °C 1009.4 hPa Calm     40% 0 mm 0.0 W/m2
04:27 20.8 °C 6.7 °C 1009.4 hPa Calm     40% 0 mm 0.0 W/m2
04:47 20.7 °C 6.6 °C 1009.4 hPa Calm     40% 0 mm 0.0 W/m2
04:53 20.4 °C 6.7 °C 1009.7 hPa Calm     41% 0 mm 0.0 W/m2
04:58 20.2 °C 6.5 °C 1009.4 hPa Calm     41% 0 mm 0.0 W/m2
05:04 20.1 °C 6.8 °C 1009.7 hPa Calm     42% 0 mm 0.0 W/m2
05:09 19.9 °C 6.6 °C 1009.7 hPa Calm     42% 0 mm 0.0 W/m2
05:14 19.7 °C 6.8 °C 1009.7 hPa Calm     43% 0 mm 0.0 W/m2
05:24 19.6 °C 6.7 °C 1009.7 hPa Calm     43% 0 mm 0.0 W/m2
05:30 19.3 °C 6.7 °C 1009.7 hPa Calm     44% 0 mm 0.0 W/m2
05:35 19.3 °C 6.7 °C 1009.7 hPa Calm     44% 0 mm 0.0 W/m2
05:40 19.2 °C 6.7 °C 1009.7 hPa Calm     44% 0 mm 0.0 W/m2
05:50 19.2 °C 6.7 °C 1010 hPa Calm     44% 0 mm 0.0 W/m2
06:02 19.1 °C 6.9 °C 1009.7 hPa Calm     45% 0 mm 0.0 W/m2
06:07 19 °C 7.1 °C 1010 hPa Calm     46% 0 mm 0.0 W/m2
06:11 18.9 °C 6.7 °C 1010 hPa Calm     45% 0 mm 0.0 W/m2
06:18 18.8 °C 6.9 °C 1010 hPa Calm     46% 0 mm 0.0 W/m2
06:21 18.8 °C 6.9 °C 1010 hPa Calm     46% 0 mm 0.0 W/m2
06:30 19 °C 6.8 °C 1010 hPa Calm     45% 0 mm 0.0 W/m2
07:34 20.6 °C 7.2 °C 1010 hPa Calm     42% 0 mm 111.0 W/m2
07:49 21.6 °C 7.4 °C 1010.4 hPa Calm     40% 0 mm 178.0 W/m2
08:06 22.5 °C 7.9 °C 1010.4 hPa Calm     39% 0 mm 227.0 W/m2
08:14 22.8 °C 7.7 °C 1010.4 hPa Calm     38% 0 mm 264.0 W/m2
08:20 23.2 °C 8.1 °C 1010.4 hPa Calm     38% 0 mm 299.0 W/m2
08:35 23.7 °C 7.7 °C 1010.4 hPa Calm     36% 0 mm 339.0 W/m2
08:45 24.2 °C 7.8 °C 1010.4 hPa Calm     35% 0 mm 376.0 W/m2
08:54 24.7 °C 7.8 °C 1010.4 hPa Calm     34% 0 mm 410.0 W/m2
08:59 24.9 °C 7.5 °C 1010.4 hPa Calm     33% 0 mm 431.0 W/m2
09:08 25.4 °C 7.5 °C 1010 hPa Calm     32% 0 mm 466.0 W/m2
10:46 30.7 °C 7.8 °C 1010 hPa Calm     24% 0 mm 754.0 W/m2
10:51 31.1 °C 7.5 °C 1010 hPa Calm     23% 0 mm 766.0 W/m2
10:56 31.4 °C 8.4 °C 1010 hPa Calm     24% 0 mm 779.0 W/m2
11:01 31.8 °C 8.1 °C 1010 hPa Calm     23% 0 mm 789.0 W/m2
11:08 31.8 °C 8.1 °C 1009.7 hPa Calm     23% 0 mm 800.0 W/m2
11:14 32.1 °C 8.4 °C 1010 hPa Calm     23% 0 mm 809.0 W/m2
11:27 32.7 °C 8.2 °C 1009.7 hPa Calm   14.5 km/h 22% 0 mm 833.0 W/m2
11:33 32.7 °C 8.9 °C 1009.7 hPa West 1.4 km/h 11.3 km/h 23% 0 mm 840.0 W/m2
11:39 32.4 °C 8 °C 1009.7 hPa West 4.7 km/h 9.7 km/h 22% 0 mm 849.0 W/m2
12:00 32.9 °C 8.4 °C 1009.4 hPa West 1.4 km/h 6.4 km/h 22% 0 mm 874.0 W/m2
12:09 33 °C 8.5 °C 1009.4 hPa Calm     22% 0 mm 886.0 W/m2
12:15 33.3 °C 8.7 °C 1009.4 hPa WNW 6.4 km/h 17.7 km/h 22% 0 mm 889.0 W/m2
12:27 33.8 °C 8.4 °C 1009 hPa WNW 6.4 km/h 12.9 km/h 21% 0 mm 898.0 W/m2
12:48 33.8 °C 8.4 °C 1008.7 hPa WNW 9.7 km/h 17.7 km/h 21% 0 mm 907.0 W/m2
13:03 34.1 °C 8.7 °C 1008.7 hPa NW 6.4 km/h 16.1 km/h 21% 0 mm 909.0 W/m2
13:33 35 °C 9.4 °C 1008.4 hPa WNW 7.9 km/h 11.3 km/h 21% 0 mm 905.0 W/m2
13:43 35.3 °C 9.7 °C 1008 hPa WNW 4.7 km/h 6.4 km/h 21% 0 mm 900.0 W/m2
13:54 35 °C 8.7 °C 1007.7 hPa Calm     20% 0 mm 884.0 W/m2
14:05 35.1 °C 8.8 °C 1007.7 hPa Calm   9.7 km/h 20% 0 mm 875.0 W/m2
14:19 35.7 °C 8.5 °C 1007.3 hPa WNW 9.7 km/h 12.9 km/h 19% 0 mm 858.0 W/m2
14:29 35.6 °C 7.6 °C 1007.3 hPa WNW 3.2 km/h 6.4 km/h 18% 0 mm 846.0 W/m2
14:50 36.2 °C 7.3 °C 1007 hPa Calm     17% 0 mm 812.0 W/m2
15:05 36.1 °C 7.2 °C 1007 hPa Calm   6.4 km/h 17% 0 mm 779.0 W/m2
15:18 36.8 °C 5.9 °C 1006.7 hPa Calm   6.4 km/h 15% 0 mm 742.0 W/m2
15:26 36.7 °C 6.8 °C 1006.7 hPa NW 9.7 km/h 14.5 km/h 16% 0 mm 719.0 W/m2
15:36 36.4 °C 6.5 °C 1006.3 hPa North 20.9 km/h 24.1 km/h 16% 0 mm 694.0 W/m2
15:46 36.3 °C 6.5 °C 1006.3 hPa Calm   6.4 km/h 16% 0 mm 668.0 W/m2
15:52 36.1 °C 7.2 °C 1006.3 hPa Calm     17% 0 mm 652.0 W/m2
16:01 36.4 °C 5.6 °C 1006.3 hPa NE 3.2 km/h 12.9 km/h 15% 0 mm 624.0 W/m2
16:06 36.3 °C 6.5 °C 1006 hPa Calm     16% 0 mm 606.0 W/m2
16:11 36.7 °C 6.8 °C 1006 hPa Calm     16% 0 mm 591.0 W/m2
16:16 36.9 °C 6 °C 1006 hPa NE 9.7 km/h 16.1 km/h 15% 0 mm 580.0 W/m2
16:22 36.8 °C 6.9 °C 1006 hPa NE 3.2 km/h 14.5 km/h 16% 0 mm 563.0 W/m2
16:27 36.7 °C 6.8 °C 1006.3 hPa NE 14.3 km/h 16.1 km/h 16% 0 mm 547.0 W/m2
16:32 36.6 °C 6.7 °C 1006 hPa Calm     16% 0 mm 526.0 W/m2
16:43 36.6 °C 6.7 °C 1006 hPa NE 3.2 km/h 14.5 km/h 16% 0 mm 499.0 W/m2
16:49 36.8 °C 6.9 °C 1006 hPa Calm   8 km/h 16% 0 mm 483.0 W/m2
16:55 36.7 °C 7.7 °C 1006 hPa NE 6.4 km/h 6.4 km/h 17% 0 mm 461.0 W/m2
17:15 37.2 °C 7.2 °C 1005.6 hPa NE 7.9 km/h 11.3 km/h 16% 0 mm 392.0 W/m2
17:23 36.6 °C 6.7 °C 1005.6 hPa Calm     16% 0 mm 353.0 W/m2
17:29 36.7 °C 7.7 °C 1005.6 hPa Calm     17% 0 mm 336.0 W/m2
17:39 36.8 °C 6.9 °C 1005.6 hPa Calm     16% 0 mm 301.0 W/m2
17:45 36.7 °C 6.8 °C 1005.6 hPa Calm     16% 0 mm 283.0 W/m2
17:50 36.7 °C 6.8 °C 1005.6 hPa NE 3.2 km/h 6.4 km/h 16% 0 mm 260.0 W/m2
17:58 36.6 °C 6.7 °C 1005.6 hPa Calm     16% 0 mm 237.0 W/m2
18:09 36.5 °C 6.6 °C 1005.6 hPa Calm   12.9 km/h 16% 0 mm 199.0 W/m2
18:21 36.1 °C 7.2 °C 1005.3 hPa Calm     17% 0 mm 132.0 W/m2
18:30 36 °C 7.1 °C 1005.6 hPa Calm   8 km/h 17% 0 mm 88.0 W/m2
18:40 36 °C 7.1 °C 1005.6 hPa Calm     17% 0 mm 56.0 W/m2
18:46 36.1 °C 6.3 °C 1005.6 hPa Calm     16% 0 mm 42.0 W/m2
18:55 35.8 °C 7 °C 1005.6 hPa NE 1.4 km/h 8 km/h 17% 0 mm 18.0 W/m2
19:02 35.6 °C 6.8 °C 1005.6 hPa Calm   6.4 km/h 17% 0 mm 12.0 W/m2
19:30 34.9 °C 7.1 °C 1006 hPa NE 13 km/h 16.1 km/h 18% 0 mm 0.0 W/m2
19:45 34.6 °C 6.8 °C 1006 hPa ENE 7.9 km/h 12.9 km/h 18% 0 mm 0.0 W/m2
19:58 34.2 °C 6.5 °C 1006.3 hPa ESE 14.3 km/h 19.3 km/h 18% 0 mm 0.0 W/m2
20:07 34.1 °C 6.4 °C 1006.3 hPa SE 14.3 km/h 19.3 km/h 18% 0 mm 0.0 W/m2
20:15 33.9 °C 6.3 °C 1006.3 hPa SSE 17.7 km/h 22.5 km/h 18% 0 mm 0.0 W/m2
20:21 33.8 °C 6.2 °C 1006.3 hPa SSE 14.3 km/h 20.9 km/h 18% 0 mm 0.0 W/m2
20:31 33.6 °C 6 °C 1006.7 hPa SSE 13 km/h 19.3 km/h 18% 0 mm 0.0 W/m2
20:36 33.5 °C 5.9 °C 1006.7 hPa SSE 7.9 km/h 17.7 km/h 18% 0 mm 0.0 W/m2
20:42 33.4 °C 5.8 °C 1006.7 hPa SSE 13 km/h 17.7 km/h 18% 0 mm 0.0 W/m2
20:51 33.1 °C 5.6 °C 1007 hPa SSE 19.5 km/h 20.9 km/h 18% 0 mm 0.0 W/m2
20:56 33.1 °C 5.6 °C 1007 hPa SSE 13 km/h 22.5 km/h 18% 0 mm 0.0 W/m2
21:02 32.9 °C 5.4 °C 1007 hPa SSE 13 km/h 19.3 km/h 18% 0 mm 0.0 W/m2
21:12 32.7 °C 6.1 °C 1007.3 hPa SSE 13 km/h 17.7 km/h 19% 0 mm 0.0 W/m2
21:18 32.6 °C 6 °C 1007.3 hPa SSE 14.3 km/h 19.3 km/h 19% 0 mm 0.0 W/m2
21:24 32.5 °C 5.9 °C 1007.3 hPa SSE 14.3 km/h 19.3 km/h 19% 0 mm 0.0 W/m2
21:32 32.4 °C 5.8 °C 1007.7 hPa SSE 17.7 km/h 20.9 km/h 19% 0 mm 0.0 W/m2
21:37 32.3 °C 5.7 °C 1007.7 hPa SSE 14.3 km/h 19.3 km/h 19% 0 mm 0.0 W/m2
21:46 31.9 °C 5.4 °C 1008 hPa SSE 11.1 km/h 14.5 km/h 19% 0 mm 0.0 W/m2
21:56 31.4 °C 5.7 °C 1008 hPa SSE 14.3 km/h 17.7 km/h 20% 0 mm 0.0 W/m2
22:06 31.3 °C 6.4 °C 1008 hPa SSE 17.7 km/h 20.9 km/h 21% 0 mm 0.0 W/m2
22:11 31.3 °C 6.4 °C 1008.4 hPa SSE 16.3 km/h 20.9 km/h 21% 0 mm 0.0 W/m2
22:16 31.3 °C 7 °C 1008 hPa SSE 16.3 km/h 20.9 km/h 22% 0 mm 0.0 W/m2
22:26 31.1 °C 6.9 °C 1008.4 hPa SSE 9.7 km/h 17.7 km/h 22% 0 mm 0.0 W/m2
22:31 30.9 °C 7.4 °C 1008.4 hPa SSE 14.3 km/h 16.1 km/h 23% 0 mm 0.0 W/m2
22:41 30.4 °C 6.9 °C 1008.4 hPa SSE 7.9 km/h 11.3 km/h 23% 0 mm 0.0 W/m2
22:52 30.1 °C 7.3 °C 1008.4 hPa SSE 9.7 km/h 14.5 km/h 24% 0 mm 0.0 W/m2
23:01 29.6 °C 7.5 °C 1008.4 hPa SSE 11.1 km/h 11.3 km/h 25% 0 mm 0.0 W/m2
23:12 29.4 °C 7.9 °C 1008.4 hPa SSE 6.4 km/h 9.7 km/h 26% 0 mm 0.0 W/m2
23:17 29.2 °C 7.7 °C 1008.4 hPa SSE 9.7 km/h 11.3 km/h 26% 0 mm 0.0 W/m2
23:22 29.2 °C 8.3 °C 1008.4 hPa SSE 11.1 km/h 14.5 km/h 27% 0 mm 0.0 W/m2
23:27 29.3 °C 7.8 °C 1008.4 hPa SSE 11.1 km/h 11.3 km/h 26% 0 mm 0.0 W/m2
23:37 29.2 °C 8.3 °C 1008.4 hPa SSE 11.1 km/h 12.9 km/h 27% 0 mm 0.0 W/m2
23:42 29.2 °C 8.3 °C 1008.4 hPa SSE 9.7 km/h 9.7 km/h 27% 0 mm 0.0 W/m2
23:47 29.3 °C 7.8 °C 1008.4 hPa SSE 11.1 km/h 14.5 km/h 26% 0 mm 0.0 W/m2
23:52 29.4 °C 7.9 °C 1008.4 hPa SSE 11.1 km/h 12.9 km/h 26% 0 mm 0.0 W/m2
23:57 29.4 °C 7.9 °C 1008.4 hPa SSE 7.9 km/h 14.5 km/h 26% 0 mm 0.0 W/m2
Canyon Roadhouse, Fishriver Canyon, Namibia
Compliments of Weather Underground - 2.5 mb